Time;durP1;ratioP1;P1;durP2;ratioP2;P2;SDS_P1;SDS_P2;PMS_P1;PMS_P2;Temp;Humidity;BMP_temperature;BMP_pressure;BME280_temperature;BME280_humidity;BME280_pressure;Samples;Min_cycle;Max_cycle;Signal;HPM_P1;HPM_P2
2022/03/15 00:01:17;;;;;;;;;;;;;;;6.31;36.50;101642.78;4433517;32;19977;-72
2022/03/15 00:03:44;;;;;;;;;;;;;;;6.26;36.07;101633.94;4439081;32;20285;-75
2022/03/15 00:06:11;;;;;;;;;;;;;;;6.46;35.58;101628.31;4445005;32;19991;-76
2022/03/15 00:08:37;;;;;;;;;;;;;;;6.48;36.07;101625.84;4439802;32;20344;-77
2022/03/15 00:11:05;;;;;;;;;;;;;;;6.30;36.76;101625.59;4430390;32;19990;-73
2022/03/15 00:13:37;;;;;;;;;;;;;;;6.36;36.59;101631.13;4430121;32;20065;-74
2022/03/15 00:16:04;;;;;;;;;;;;;;;6.28;36.25;101632.31;4433620;32;20337;-77
2022/03/15 00:18:32;;;;;;;;;;;;;;;6.10;37.03;101631.19;4433969;32;19982;-74
2022/03/15 00:20:59;;;;;;;;;;;;;;;5.83;37.67;101628.59;4415169;32;20320;-73
2022/03/15 00:23:26;;;;;;;;;;;;;;;6.12;36.71;101615.03;4431204;32;19989;-75
2022/03/15 00:25:53;;;;;;;;;;;;;;;6.14;36.33;101607.44;4415529;32;19992;-78
2022/03/15 00:28:22;;;;;;;;;;;;;;;6.18;36.04;101611.97;4417020;32;20034;-76
2022/03/15 00:30:53;;;;;;;;;;;;;;;6.33;36.47;101605.22;4444331;32;19981;-75
2022/03/15 00:33:20;;;;;;;;;;;;;;;6.08;36.96;101604.50;4441316;32;19989;-77
2022/03/15 00:35:47;;;;;;;;;;;;;;;5.96;37.41;101602.03;4431948;32;20003;-76
2022/03/15 00:38:14;;;;;;;;;;;;;;;5.86;37.75;101608.25;4447187;32;20012;-75
2022/03/15 00:40:41;;;;;;;;;;;;;;;5.90;36.86;101609.31;4447330;32;20042;-73
2022/03/15 00:43:08;;;;;;;;;;;;;;;5.93;36.32;101613.00;4432771;32;19989;-76
2022/03/15 00:45:34;;;;;;;;;;;;;;;5.88;37.19;101609.22;4445758;32;20314;-76
2022/03/15 00:48:02;;;;;;;;;;;;;;;5.89;36.95;101605.88;4446622;32;19986;-76
2022/03/15 00:50:33;;;;;;;;;;;;;;;5.85;37.99;101608.16;4447045;32;19995;-76
2022/03/15 00:53:00;;;;;;;;;;;;;;;5.91;37.71;101614.56;4446495;32;19989;-74
2022/03/15 00:55:27;;;;;;;;;;;;;;;5.80;37.36;101616.44;4301553;32;20908;-76
2022/03/15 00:57:53;;;;;;;;;;;;;;;5.78;37.90;101617.16;4413550;32;20040;-78
2022/03/15 01:00:21;;;;;;;;;;;;;;;5.75;37.26;101611.81;4430297;32;20008;-75
2022/03/15 01:02:49;;;;;;;;;;;;;;;5.72;37.09;101603.91;4430126;32;20773;-72
2022/03/15 01:05:16;;;;;;;;;;;;;;;5.78;37.23;101591.47;4431671;32;19981;-77
2022/03/15 01:07:43;;;;;;;;;;;;;;;5.86;37.70;101585.09;4420822;32;19985;-74
2022/03/15 01:10:13;;;;;;;;;;;;;;;5.78;37.63;101586.31;4432316;32;19999;-75
2022/03/15 01:12:39;;;;;;;;;;;;;;;6.00;37.71;101574.06;4441535;32;19993;-73
2022/03/15 01:15:09;;;;;;;;;;;;;;;5.89;37.40;101580.16;4443643;32;19973;-76
2022/03/15 01:17:36;;;;;;;;;;;;;;;5.49;38.78;101581.91;4431385;32;20016;-73
2022/03/15 01:20:04;;;;;;;;;;;;;;;5.71;37.99;101569.63;4428063;32;20036;-76
2022/03/15 01:22:31;;;;;;;;;;;;;;;5.65;38.41;101568.31;4431171;32;20017;-75
2022/03/15 01:24:58;;;;;;;;;;;;;;;5.67;37.59;101564.19;4429951;32;20512;-76
2022/03/15 01:27:25;;;;;;;;;;;;;;;5.48;38.17;101570.72;4429213;32;19985;-75
2022/03/15 01:29:54;;;;;;;;;;;;;;;5.63;38.33;101565.69;4431015;32;20028;-74
2022/03/15 01:32:22;;;;;;;;;;;;;;;5.76;37.68;101562.19;4431090;32;19994;-77
2022/03/15 01:34:48;;;;;;;;;;;;;;;5.90;37.18;101561.38;4430625;32;20417;-72
2022/03/15 01:37:16;;;;;;;;;;;;;;;5.81;38.06;101560.81;4431662;32;19990;-74
2022/03/15 01:39:43;;;;;;;;;;;;;;;5.91;37.75;101568.31;4430089;32;20043;-73
2022/03/15 01:42:10;;;;;;;;;;;;;;;5.55;38.81;101556.56;4408460;32;19982;-74
2022/03/15 01:44:37;;;;;;;;;;;;;;;5.55;37.99;101565.19;4416048;32;19996;-74
2022/03/15 01:47:05;;;;;;;;;;;;;;;5.95;37.70;101560.03;4427242;32;20001;-77
2022/03/15 01:49:31;;;;;;;;;;;;;;;5.61;38.50;101567.25;4418059;32;20039;-72
2022/03/15 01:51:59;;;;;;;;;;;;;;;5.70;38.19;101577.22;4431072;32;20304;-75
2022/03/15 01:54:26;;;;;;;;;;;;;;;5.59;38.84;101580.00;4431059;32;20007;-78
2022/03/15 01:56:52;;;;;;;;;;;;;;;5.21;39.59;101582.66;4442226;32;20039;-73
2022/03/15 01:59:19;;;;;;;;;;;;;;;5.63;37.76;101586.22;4431193;32;20050;-75
2022/03/15 02:01:46;;;;;;;;;;;;;;;5.88;37.14;101568.13;4430934;32;19982;-75
2022/03/15 02:04:15;;;;;;;;;;;;;;;5.73;38.29;101577.41;4430536;32;20256;-73
2022/03/15 02:06:42;;;;;;;;;;;;;;;5.74;38.35;101574.06;4442198;32;19985;-75
2022/03/15 02:09:10;;;;;;;;;;;;;;;5.75;37.56;101575.84;4430206;32;20023;-78
2022/03/15 02:11:37;;;;;;;;;;;;;;;5.72;38.12;101570.50;4430959;32;19985;-72
2022/03/15 02:14:04;;;;;;;;;;;;;;;5.71;38.25;101571.28;4442048;32;19982;-75
2022/03/15 02:16:32;;;;;;;;;;;;;;;5.70;38.45;101572.09;4441847;32;20064;-72
2022/03/15 02:18:59;;;;;;;;;;;;;;;5.69;37.93;101565.19;4442130;32;19985;-73
2022/03/15 02:21:26;;;;;;;;;;;;;;;5.85;37.12;101567.94;4430883;32;19990;-75
2022/03/15 02:23:53;;;;;;;;;;;;;;;5.37;39.21;101566.56;4431275;32;19974;-75
2022/03/15 02:26:20;;;;;;;;;;;;;;;5.40;39.14;101571.91;4430825;32;19989;-73
2022/03/15 02:28:47;;;;;;;;;;;;;;;5.25;39.25;101571.78;4431048;32;20111;-75
2022/03/15 02:31:15;;;;;;;;;;;;;;;5.49;38.69;101561.34;4430229;32;19977;-72
2022/03/15 02:33:42;;;;;;;;;;;;;;;5.76;37.99;101562.19;4429024;32;20444;-77
2022/03/15 02:36:10;;;;;;;;;;;;;;;5.75;37.97;101560.44;4417518;32;19997;-74
2022/03/15 02:38:37;;;;;;;;;;;;;;;5.52;38.68;101574.34;4438537;32;19989;-74
2022/03/15 02:41:04;;;;;;;;;;;;;;;5.26;38.80;101575.25;4430792;32;19990;-77
2022/03/15 02:43:31;;;;;;;;;;;;;;;5.22;39.52;101575.84;4416780;32;19994;-77
2022/03/15 02:45:59;;;;;;;;;;;;;;;5.36;38.74;101582.78;4415737;32;20000;-77
2022/03/15 02:48:26;;;;;;;;;;;;;;;5.55;37.78;101583.19;4430923;32;20027;-75
2022/03/15 02:50:55;;;;;;;;;;;;;;;5.53;38.16;101577.03;4432371;32;19989;-73
2022/03/15 02:53:21;;;;;;;;;;;;;;;5.55;38.74;101583.19;4423965;32;19978;-77
2022/03/15 02:55:55;;;;;;;;;;;;;;;5.42;38.45;101585.72;4337672;32;10000592;-74
2022/03/15 02:58:21;;;;;;;;;;;;;;;5.49;38.35;101590.50;4444561;32;19989;-74
2022/03/15 03:00:48;;;;;;;;;;;;;;;5.16;39.52;101586.59;4443184;32;19988;-74
2022/03/15 03:03:16;;;;;;;;;;;;;;;5.14;39.31;101583.06;4446112;32;19993;-76
2022/03/15 03:05:43;;;;;;;;;;;;;;;5.40;37.94;101574.47;4445566;32;19985;-76
2022/03/15 03:08:10;;;;;;;;;;;;;;;5.24;38.43;101579.41;4445694;32;19977;-77
2022/03/15 03:10:37;;;;;;;;;;;;;;;5.42;38.39;101575.44;4445710;32;20023;-76
2022/03/15 03:13:05;;;;;;;;;;;;;;;5.37;39.11;101576.84;4446206;32;20039;-75
2022/03/15 03:15:32;;;;;;;;;;;;;;;4.97;40.07;101579.34;4432915;32;19989;-77
2022/03/15 03:17:58;;;;;;;;;;;;;;;5.24;38.85;101579.41;4445926;32;20012;-76
2022/03/15 03:20:26;;;;;;;;;;;;;;;5.37;38.40;101577.72;4445993;32;19977;-73
2022/03/15 03:22:55;;;;;;;;;;;;;;;5.11;39.40;101578.59;4445120;32;19989;-76
2022/03/15 03:25:21;;;;;;;;;;;;;;;5.13;38.90;101577.00;4433214;32;19993;-73
2022/03/15 03:27:48;;;;;;;;;;;;;;;4.99;39.90;101582.03;4430639;32;20011;-74
2022/03/15 03:30:16;;;;;;;;;;;;;;;4.89;39.94;101580.53;4430174;32;20008;-77
2022/03/15 03:32:44;;;;;;;;;;;;;;;5.20;39.20;101572.28;4430168;32;19993;-76
2022/03/15 03:35:11;;;;;;;;;;;;;;;5.05;38.68;101567.03;4429300;32;19989;-73
2022/03/15 03:37:38;;;;;;;;;;;;;;;4.96;39.16;101572.44;4427090;32;19996;-76
2022/03/15 03:40:07;;;;;;;;;;;;;;;4.88;39.73;101589.00;4429964;32;20333;-75
2022/03/15 03:42:35;;;;;;;;;;;;;;;4.73;40.07;101590.56;4415911;32;20828;-75
2022/03/15 03:45:03;;;;;;;;;;;;;;;4.71;40.32;101592.13;4429391;32;20297;-74
2022/03/15 03:47:29;;;;;;;;;;;;;;;4.88;39.54;101594.12;4428067;32;20022;-73
2022/03/15 03:49:56;;;;;;;;;;;;;;;4.77;39.67;101585.72;4429791;32;20738;-76
2022/03/15 03:52:25;;;;;;;;;;;;;;;4.92;40.00;101579.84;4427826;32;19985;-76
2022/03/15 03:54:51;;;;;;;;;;;;;;;4.89;39.88;101590.81;4429993;32;20511;-76
2022/03/15 03:57:19;;;;;;;;;;;;;;;4.50;40.66;101589.87;4429594;32;20369;-77
2022/03/15 03:59:46;;;;;;;;;;;;;;;4.55;40.56;101593.63;4429046;32;19988;-78
2022/03/15 04:02:13;;;;;;;;;;;;;;;4.80;39.62;101596.19;4431622;32;19982;-76
2022/03/15 04:04:40;;;;;;;;;;;;;;;4.62;39.62;101590.69;4419233;32;20001;-73
2022/03/15 04:07:11;;;;;;;;;;;;;;;4.62;39.55;101584.69;4410371;32;20399;-75
2022/03/15 04:09:38;;;;;;;;;;;;;;;4.78;39.23;101591.75;4420359;32;19982;-72
2022/03/15 04:12:06;;;;;;;;;;;;;;;5.01;39.02;101591.62;4417948;32;20717;-74
2022/03/15 04:14:34;;;;;;;;;;;;;;;4.89;39.49;101581.41;4430383;32;20072;-73
2022/03/15 04:17:02;;;;;;;;;;;;;;;4.90;40.63;101587.44;4431619;32;20043;-77
2022/03/15 04:19:29;;;;;;;;;;;;;;;4.93;39.90;101582.50;4431597;32;20340;-76
2022/03/15 04:21:57;;;;;;;;;;;;;;;5.03;39.45;101584.91;4433442;32;20338;-76
2022/03/15 04:24:24;;;;;;;;;;;;;;;4.76;40.21;101593.34;4416316;32;19989;-73
2022/03/15 04:26:51;;;;;;;;;;;;;;;4.68;40.22;101591.91;4416255;32;20026;-76
2022/03/15 04:29:18;;;;;;;;;;;;;;;4.57;40.06;101592.06;4404884;32;19982;-73
2022/03/15 04:31:44;;;;;;;;;;;;;;;4.50;40.70;101605.28;4405026;32;19982;-77
2022/03/15 04:34:12;;;;;;;;;;;;;;;4.57;40.31;101597.22;4401020;32;19994;-74
2022/03/15 04:36:40;;;;;;;;;;;;;;;4.48;40.99;101596.56;4399190;32;19986;-74
2022/03/15 04:39:07;;;;;;;;;;;;;;;4.61;40.31;101603.44;4394698;32;19978;-75
2022/03/15 04:41:34;;;;;;;;;;;;;;;4.51;40.69;101612.16;4407471;32;20001;-78
2022/03/15 04:44:01;;;;;;;;;;;;;;;4.58;39.80;101604.09;4399771;32;19978;-72
2022/03/15 04:46:28;;;;;;;;;;;;;;;4.50;40.32;101605.28;4394956;32;20790;-73
2022/03/15 04:48:56;;;;;;;;;;;;;;;4.60;39.40;101602.53;4404449;32;20738;-75
2022/03/15 04:51:24;;;;;;;;;;;;;;;4.57;39.82;101602.34;4398325;32;20014;-76
2022/03/15 04:53:51;;;;;;;;;;;;;;;4.41;40.30;101612.31;4384493;32;19994;-74
2022/03/15 04:56:19;;;;;;;;;;;;;;;4.38;40.83;101614.69;4381011;32;20280;-77
2022/03/15 04:58:46;;;;;;;;;;;;;;;4.28;40.96;101607.13;4386013;32;19970;-74
2022/03/15 05:01:13;;;;;;;;;;;;;;;4.20;40.85;101615.16;4387796;32;19982;-75
2022/03/15 05:03:40;;;;;;;;;;;;;;;4.52;40.27;101618.19;4391841;32;19996;-74
2022/03/15 05:06:07;;;;;;;;;;;;;;;3.96;41.34;101618.56;4383209;32;19986;-74
2022/03/15 05:08:34;;;;;;;;;;;;;;;4.42;40.18;101616.66;4389397;32;19978;-74
2022/03/15 05:11:06;;;;;;;;;;;;;;;4.36;40.03;101621.34;4405322;32;19987;-79
2022/03/15 05:13:45;;;;;;;;;;;;;;;4.48;40.18;101617.09;4400857;32;20080;-71
2022/03/15 05:16:13;;;;;;;;;;;;;;;4.40;40.25;101628.47;4400977;32;20328;-76
2022/03/15 05:18:41;;;;;;;;;;;;;;;4.20;41.02;101620.28;4397796;32;20042;-74
2022/03/15 05:21:08;;;;;;;;;;;;;;;4.41;40.50;101625.16;4409474;32;19999;-74
2022/03/15 05:23:35;;;;;;;;;;;;;;;4.32;40.24;101621.94;4431669;32;19985;-78
2022/03/15 05:26:02;;;;;;;;;;;;;;;4.31;40.46;101617.59;4430119;32;19999;-76
2022/03/15 05:28:28;;;;;;;;;;;;;;;4.31;40.63;101622.72;4417184;32;20471;-70
2022/03/15 05:30:56;;;;;;;;;;;;;;;4.59;40.96;101616.13;4417451;32;20002;-73
2022/03/15 05:33:23;;;;;;;;;;;;;;;4.71;39.89;101620.34;4431249;32;20311;-76
2022/03/15 05:35:50;;;;;;;;;;;;;;;4.56;40.65;101610.81;4417152;32;20027;-74
2022/03/15 05:38:18;;;;;;;;;;;;;;;4.51;41.51;101612.16;4430787;32;19989;-73
2022/03/15 05:40:44;;;;;;;;;;;;;;;4.71;40.54;101616.09;4431443;32;19985;-77
2022/03/15 05:43:11;;;;;;;;;;;;;;;4.90;40.77;101613.97;4431446;32;19994;-75
2022/03/15 05:45:38;;;;;;;;;;;;;;;4.92;41.08;101618.34;4429763;32;19985;-77
2022/03/15 05:48:05;;;;;;;;;;;;;;;4.71;41.54;101620.34;4124460;32;10003821;-72
2022/03/15 05:50:32;;;;;;;;;;;;;;;4.96;41.03;101617.75;4430479;32;20045;-77
2022/03/15 05:53:05;;;;;;;;;;;;;;;5.28;40.24;101604.50;4396288;32;19981;-77
2022/03/15 05:55:32;;;;;;;;;;;;;;;5.20;41.02;101614.25;4431120;32;19996;-72
2022/03/15 05:57:59;;;;;;;;;;;;;;;5.33;41.06;101610.81;4429494;32;19986;-72
2022/03/15 06:00:27;;;;;;;;;;;;;;;5.49;39.74;101608.47;4430268;32;19977;-70
2022/03/15 06:02:54;;;;;;;;;;;;;;;5.62;38.95;101599.87;4395493;32;19991;-72
2022/03/15 06:05:21;;;;;;;;;;;;;;;5.69;38.92;101611.44;4420844;32;19994;-73
2022/03/15 06:07:49;;;;;;;;;;;;;;;5.25;40.34;101612.00;4430795;32;19981;-72
2022/03/15 06:10:17;;;;;;;;;;;;;;;5.79;39.66;101604.41;4431272;32;19989;-73
2022/03/15 06:12:44;;;;;;;;;;;;;;;5.71;39.53;101609.81;4415128;32;20263;-71
2022/03/15 06:15:10;;;;;;;;;;;;;;;5.86;39.91;101605.66;4416429;32;20023;-70
2022/03/15 06:17:45;;;;;;;;;;;;;;;5.51;41.51;101611.12;4416822;32;20051;-70
2022/03/15 06:20:14;;;;;;;;;;;;;;;5.38;40.21;101609.44;4428839;32;19981;-70
2022/03/15 06:22:47;;;;;;;;;;;;;;;5.77;39.65;101610.22;4430949;32;19998;-70
2022/03/15 06:25:17;;;;;;;;;;;;;;;5.99;39.94;101605.69;4430204;32;20019;-69
2022/03/15 06:27:48;;;;;;;;;;;;;;;6.20;38.14;101612.97;4432904;32;20323;-72
2022/03/15 06:30:16;;;;;;;;;;;;;;;5.97;40.04;101615.00;4416536;32;20023;-70
2022/03/15 06:32:43;;;;;;;;;;;;;;;6.26;38.57;101618.50;4415393;32;20004;-70
2022/03/15 06:35:12;;;;;;;;;;;;;;;6.36;37.95;101615.69;4429551;32;20372;-71
2022/03/15 06:37:40;;;;;;;;;;;;;;;6.43;37.80;101617.84;4430167;32;19989;-71
2022/03/15 06:40:07;;;;;;;;;;;;;;;6.47;37.31;101613.75;4430843;32;19985;-71
2022/03/15 06:42:34;;;;;;;;;;;;;;;6.61;37.73;101612.94;4430859;32;19993;-71
2022/03/15 06:45:01;;;;;;;;;;;;;;;6.86;37.67;101612.72;4417884;32;20337;-72
2022/03/15 06:47:28;;;;;;;;;;;;;;;7.22;37.26;101610.53;4429382;32;19974;-71
2022/03/15 06:49:55;;;;;;;;;;;;;;;7.35;37.00;101607.84;4426120;32;20004;-74
2022/03/15 06:52:21;;;;;;;;;;;;;;;7.71;36.14;101603.00;4431475;32;20039;-71
2022/03/15 06:54:48;;;;;;;;;;;;;;;8.07;35.05;101608.41;4445801;32;19977;-73
2022/03/15 06:57:16;;;;;;;;;;;;;;;8.37;34.19;101594.59;4446292;32;20007;-72
2022/03/15 06:59:43;;;;;;;;;;;;;;;8.57;33.73;101592.19;4443268;32;20376;-72
2022/03/15 07:02:11;;;;;;;;;;;;;;;9.07;32.98;101586.16;4443072;32;19986;-74
2022/03/15 07:04:39;;;;;;;;;;;;;;;9.50;32.46;101577.94;4446272;32;20043;-77
2022/03/15 07:07:06;;;;;;;;;;;;;;;10.01;31.54;101573.44;4444952;32;20018;-76
2022/03/15 07:09:33;;;;;;;;;;;;;;;10.56;30.81;101580.25;4431366;32;19977;-76
2022/03/15 07:12:00;;;;;;;;;;;;;;;10.86;30.13;101570.34;4429636;32;19993;-74
2022/03/15 07:14:27;;;;;;;;;;;;;;;11.03;30.31;101573.66;4430748;32;19985;-74
2022/03/15 07:16:54;;;;;;;;;;;;;;;11.42;29.56;101564.03;4430146;32;20009;-72
2022/03/15 07:19:21;;;;;;;;;;;;;;;11.86;28.18;101567.53;4431426;32;20260;-75
2022/03/15 07:21:48;;;;;;;;;;;;;;;12.38;27.09;101568.59;4429889;32;19978;-78
2022/03/15 07:24:15;;;;;;;;;;;;;;;12.64;26.66;101566.97;4430613;32;20354;-73
2022/03/15 07:26:43;;;;;;;;;;;;;;;12.86;26.64;101566.88;4430323;32;20004;-77
2022/03/15 07:29:10;;;;;;;;;;;;;;;13.04;26.18;101567.47;4429807;32;19981;-74
2022/03/15 07:31:36;;;;;;;;;;;;;;;13.32;25.42;101560.62;4430415;32;19978;-79
2022/03/15 07:34:03;;;;;;;;;;;;;;;13.68;26.12;101565.22;4431052;32;20013;-77
2022/03/15 07:36:35;;;;;;;;;;;;;;;13.58;24.64;101569.28;4427577;32;20046;-76
2022/03/15 07:39:03;;;;;;;;;;;;;;;13.67;23.99;101563.47;4431254;32;20440;-77
2022/03/15 07:41:37;;;;;;;;;;;;;;;13.92;24.58;101563.41;4427890;32;19985;-75
2022/03/15 07:44:04;;;;;;;;;;;;;;;14.26;24.12;101569.56;4443258;32;20372;-78
2022/03/15 07:46:31;;;;;;;;;;;;;;;14.57;23.39;101568.75;4429225;32;19985;-75
2022/03/15 07:48:58;;;;;;;;;;;;;;;14.94;23.19;101574.09;4419975;32;20035;-73
2022/03/15 07:51:25;;;;;;;;;;;;;;;15.40;22.25;101575.22;4428213;32;19981;-79
2022/03/15 07:53:54;;;;;;;;;;;;;;;15.19;22.56;101571.25;4402348;32;19977;-75
2022/03/15 07:56:21;;;;;;;;;;;;;;;15.33;22.41;101569.88;4419316;32;20436;-75
2022/03/15 07:58:48;;;;;;;;;;;;;;;15.48;22.05;101569.34;4415279;32;20460;-77
2022/03/15 08:01:15;;;;;;;;;;;;;;;15.51;22.14;101563.34;4428710;32;19986;-75
2022/03/15 08:03:44;;;;;;;;;;;;;;;15.71;21.61;101564.69;4415439;32;20365;-75
2022/03/15 08:06:11;;;;;;;;;;;;;;;15.83;21.09;101565.84;4104688;32;10003737;-74
2022/03/15 08:08:38;;;;;;;;;;;;;;;15.92;21.22;101568.63;4405368;32;20002;-73
2022/03/15 08:11:07;;;;;;;;;;;;;;;15.68;21.86;101563.75;4399062;32;20361;-76
2022/03/15 08:13:36;;;;;;;;;;;;;;;16.04;21.42;101566.28;4399262;32;19990;-76
2022/03/15 08:16:04;;;;;;;;;;;;;;;15.99;21.43;101567.94;4398791;32;19986;-73
2022/03/15 08:18:31;;;;;;;;;;;;;;;16.31;21.27;101565.13;4399352;32;19986;-74
2022/03/15 08:20:59;;;;;;;;;;;;;;;15.94;22.08;101561.72;4398251;32;19970;-74
2022/03/15 08:23:28;;;;;;;;;;;;;;;16.40;21.75;101555.72;4398648;32;20513;-72
2022/03/15 08:25:57;;;;;;;;;;;;;;;16.60;21.37;101553.50;4406103;32;20028;-72
2022/03/15 08:28:24;;;;;;;;;;;;;;;16.60;21.05;101553.50;4397256;32;19982;-74
2022/03/15 08:30:52;;;;;;;;;;;;;;;16.54;20.87;101553.38;4251631;32;5092565;-72
2022/03/15 08:33:19;;;;;;;;;;;;;;;16.54;21.21;101548.16;4398295;32;19987;-73
2022/03/15 08:35:46;;;;;;;;;;;;;;;15.98;22.15;101550.47;4409733;32;20072;-74
2022/03/15 08:38:13;;;;;;;;;;;;;;;16.52;21.73;101547.22;4409027;32;20006;-73
2022/03/15 08:40:40;;;;;;;;;;;;;;;16.43;21.75;101541.81;4399123;32;19986;-73
2022/03/15 08:43:07;;;;;;;;;;;;;;;16.55;21.72;101538.56;4399340;32;19994;-74
2022/03/15 08:45:35;;;;;;;;;;;;;;;16.63;20.72;101540.47;4398094;32;19974;-73
2022/03/15 08:48:03;;;;;;;;;;;;;;;16.42;22.02;101533.09;4410015;32;19978;-73
2022/03/15 08:50:30;;;;;;;;;;;;;;;16.61;21.38;101529.09;4399325;32;20435;-73
2022/03/15 08:52:57;;;;;;;;;;;;;;;17.17;20.33;101516.16;4398798;32;20063;-74
2022/03/15 08:55:26;;;;;;;;;;;;;;;17.26;19.96;101517.16;4398985;32;19978;-72
2022/03/15 08:57:53;;;;;;;;;;;;;;;17.29;19.53;101509.34;4411335;32;20061;-75
2022/03/15 09:00:20;;;;;;;;;;;;;;;16.96;20.35;101510.56;4400703;32;20045;-73
2022/03/15 09:02:47;;;;;;;;;;;;;;;17.35;19.36;101509.44;4412262;32;19990;-73
2022/03/15 09:05:19;;;;;;;;;;;;;;;17.23;20.27;101506.62;4411970;32;20876;-73
2022/03/15 09:07:51;;;;;;;;;;;;;;;17.36;19.61;101500.75;4394663;32;20000;-75
2022/03/15 09:10:21;;;;;;;;;;;;;;;17.06;19.83;101496.78;4083004;32;10004007;-75
2022/03/15 09:12:49;;;;;;;;;;;;;;;17.02;20.16;101489.75;4384370;32;20021;-75
2022/03/15 09:15:16;;;;;;;;;;;;;;;17.40;18.89;101489.47;4384396;32;19975;-72
2022/03/15 09:17:43;;;;;;;;;;;;;;;17.19;19.63;101498.72;4370798;32;20325;-73
2022/03/15 09:20:21;;;;;;;;;;;;;;;17.19;19.42;101487.37;4384193;32;20106;-73
2022/03/15 09:22:48;;;;;;;;;;;;;;;17.52;19.15;101481.78;4369874;32;19986;-73
2022/03/15 09:25:17;;;;;;;;;;;;;;;17.62;19.28;101482.78;4377353;32;20460;-73
2022/03/15 09:27:44;;;;;;;;;;;;;;;17.14;19.51;101474.25;4428257;32;20047;-73
2022/03/15 09:30:11;;;;;;;;;;;;;;;17.61;19.21;101471.44;4417985;32;20000;-73
2022/03/15 09:32:38;;;;;;;;;;;;;;;17.82;18.68;101464.75;4431366;32;20289;-73
2022/03/15 09:35:05;;;;;;;;;;;;;;;18.06;18.61;101459.81;4417687;32;20327;-73
2022/03/15 09:37:32;;;;;;;;;;;;;;;17.76;19.33;101459.38;4417797;32;19977;-72
2022/03/15 09:40:05;;;;;;;;;;;;;;;18.04;18.38;101461.50;4417577;32;20002;-73
2022/03/15 09:42:32;;;;;;;;;;;;;;;18.01;18.38;101461.47;4417655;32;20374;-74
2022/03/15 09:44:59;;;;;;;;;;;;;;;16.81;19.14;101458.88;4417299;32;19981;-73
2022/03/15 09:47:29;;;;;;;;;;;;;;;17.10;19.17;101456.75;4430529;32;20377;-73
2022/03/15 09:49:56;;;;;;;;;;;;;;;17.10;19.02;101456.75;4417885;32;20034;-77
2022/03/15 09:52:23;;;;;;;;;;;;;;;16.67;20.61;101458.62;4430492;32;20030;-73
2022/03/15 09:54:49;;;;;;;;;;;;;;;16.97;19.61;101454.78;4416197;32;19991;-75
2022/03/15 09:57:16;;;;;;;;;;;;;;;17.15;20.06;101457.69;4401841;32;20038;-75
2022/03/15 09:59:43;;;;;;;;;;;;;;;16.79;20.17;101454.50;4402359;32;19977;-74
2022/03/15 10:02:10;;;;;;;;;;;;;;;16.97;20.78;101446.91;4401905;32;20020;-75
2022/03/15 10:04:37;;;;;;;;;;;;;;;17.16;19.79;101451.56;4410487;32;20688;-72
2022/03/15 10:07:04;;;;;;;;;;;;;;;16.34;20.76;101447.59;4430367;32;20182;-75
2022/03/15 10:09:31;;;;;;;;;;;;;;;16.66;20.03;101448.16;4413388;32;20009;-74
2022/03/15 10:11:59;;;;;;;;;;;;;;;16.49;20.90;101450.44;4431554;32;19977;-74
2022/03/15 10:14:27;;;;;;;;;;;;;;;16.20;20.86;101453.41;4431173;32;20421;-75
2022/03/15 10:16:59;;;;;;;;;;;;;;;16.63;20.83;101446.34;4430661;32;20023;-73
2022/03/15 10:19:27;;;;;;;;;;;;;;;16.97;20.69;101441.69;4431486;32;19981;-73
2022/03/15 10:21:56;;;;;;;;;;;;;;;16.71;21.08;101442.12;4429022;32;20053;-73
2022/03/15 10:24:23;;;;;;;;;;;;;;;17.18;20.48;101443.75;4416269;32;20130;-75
2022/03/15 10:26:51;;;;;;;;;;;;;;;16.89;20.43;101435.47;4431498;32;20435;-75
2022/03/15 10:29:19;;;;;;;;;;;;;;;16.95;20.71;101435.56;4431345;32;20031;-73
2022/03/15 10:31:46;;;;;;;;;;;;;;;17.14;20.54;101435.00;4430437;32;19977;-74
2022/03/15 10:34:13;;;;;;;;;;;;;;;17.30;20.19;101427.38;4442383;32;20345;-74
2022/03/15 10:36:45;;;;;;;;;;;;;;;17.06;20.16;101415.66;4429579;32;20032;-75
2022/03/15 10:39:13;;;;;;;;;;;;;;;17.10;21.31;101414.88;4431129;32;20468;-74
2022/03/15 10:41:48;;;;;;;;;;;;;;;16.42;21.13;101407.63;4431361;32;19969;-74
2022/03/15 10:44:19;;;;;;;;;;;;;;;16.67;20.58;101398.47;4430783;32;19982;-73
2022/03/15 10:47:03;;;;;;;;;;;;;;;16.76;21.09;101394.28;4429904;32;19993;-74
2022/03/15 10:49:31;;;;;;;;;;;;;;;16.60;20.87;101391.41;4442474;32;19989;-75
2022/03/15 10:51:59;;;;;;;;;;;;;;;16.61;21.14;101393.16;4415162;32;20373;-74
2022/03/15 10:54:26;;;;;;;;;;;;;;;17.16;20.38;101383.53;4432926;32;19981;-73
2022/03/15 10:56:58;;;;;;;;;;;;;;;17.04;20.38;101375.53;4429995;32;20005;-72
2022/03/15 10:59:25;;;;;;;;;;;;;;;17.03;20.23;101365.91;4429283;32;19985;-74
2022/03/15 11:01:52;;;;;;;;;;;;;;;16.83;20.85;101367.38;4428848;32;20004;-74
2022/03/15 11:04:20;;;;;;;;;;;;;;;17.17;20.57;101359.16;4426487;32;20324;-74
2022/03/15 11:06:48;;;;;;;;;;;;;;;17.11;20.78;101356.44;4431139;32;19985;-73
2022/03/15 11:09:15;;;;;;;;;;;;;;;17.64;20.30;101350.09;4430858;32;20053;-73
2022/03/15 11:11:42;;;;;;;;;;;;;;;17.90;19.80;101345.22;4430976;32;20319;-73
2022/03/15 11:14:10;;;;;;;;;;;;;;;17.80;19.74;101340.72;4428955;32;19986;-73
2022/03/15 11:16:37;;;;;;;;;;;;;;;17.18;19.97;101334.72;4429513;32;19992;-75
2022/03/15 11:19:05;;;;;;;;;;;;;;;17.06;20.60;101318.88;4427244;32;19993;-72
2022/03/15 11:21:32;;;;;;;;;;;;;;;17.52;20.05;101314.22;4428716;32;19981;-73
2022/03/15 11:23:59;;;;;;;;;;;;;;;17.53;20.57;101310.72;4441866;32;20349;-73
2022/03/15 11:26:28;;;;;;;;;;;;;;;17.53;20.14;101310.72;4441887;32;20048;-73
2022/03/15 11:28:56;;;;;;;;;;;;;;;17.74;20.09;101296.09;4429904;32;19992;-73
2022/03/15 11:31:23;;;;;;;;;;;;;;;18.20;19.38;101294.81;4430692;32;20016;-73
2022/03/15 11:33:51;;;;;;;;;;;;;;;18.27;18.46;101290.50;4426119;32;20045;-72
2022/03/15 11:36:19;;;;;;;;;;;;;;;18.02;18.81;101279.78;4401631;32;19996;-72
2022/03/15 11:38:46;;;;;;;;;;;;;;;18.35;18.27;101267.84;4411384;32;20318;-72
2022/03/15 11:41:16;;;;;;;;;;;;;;;18.15;18.52;101259.81;4416583;32;20069;-73
2022/03/15 11:43:50;;;;;;;;;;;;;;;17.92;18.57;101256.12;4121584;32;10004110;-72
2022/03/15 11:46:17;;;;;;;;;;;;;;;18.12;18.72;101259.78;4414163;32;20010;-72
2022/03/15 11:48:54;;;;;;;;;;;;;;;18.22;18.36;101255.50;4401185;32;20027;-72
2022/03/15 11:51:28;;;;;;;;;;;;;;;18.11;18.64;101248.44;4416796;32;20745;-74
2022/03/15 11:54:03;;;;;;;;;;;;;;;18.26;18.48;101236.31;4408347;32;19981;-71
2022/03/15 11:56:36;;;;;;;;;;;;;;;18.20;19.37;101226.66;4403206;32;20001;-72
2022/03/15 11:59:03;;;;;;;;;;;;;;;18.41;18.57;101207.59;4416019;32;20034;-75
2022/03/15 12:01:33;;;;;;;;;;;;;;;18.33;18.46;101202.28;4416145;32;20008;-75
2022/03/15 12:04:00;;;;;;;;;;;;;;;18.26;18.33;101199.63;4430178;32;19985;-72
2022/03/15 12:06:28;;;;;;;;;;;;;;;18.82;18.69;101196.44;4426970;32;19985;-73
2022/03/15 12:08:57;;;;;;;;;;;;;;;18.78;18.18;101194.69;4414009;32;19989;-73
2022/03/15 12:11:35;;;;;;;;;;;;;;;18.26;18.56;101181.28;4415616;32;20771;-73
2022/03/15 12:14:04;;;;;;;;;;;;;;;18.78;18.63;101184.19;4415767;32;20004;-75
2022/03/15 12:16:41;;;;;;;;;;;;;;;18.63;18.54;101173.59;4417835;32;20118;-75
2022/03/15 12:19:23;;;;;;;;;;;;;;;18.59;18.80;101181.44;4425387;32;20323;-75
2022/03/15 12:21:53;;;;;;;;;;;;;;;18.86;18.13;101172.00;4422826;32;19982;-74
2022/03/15 12:24:39;;;;;;;;;;;;;;;18.99;17.98;101163.28;4434774;32;19999;-75
2022/03/15 12:27:18;;;;;;;;;;;;;;;19.24;19.04;101158.06;4114723;32;10001323;-75
2022/03/15 12:29:54;;;;;;;;;;;;;;;18.85;18.29;101156.22;4428345;32;19981;-73
2022/03/15 12:32:22;;;;;;;;;;;;;;;18.70;18.80;101154.41;4423443;32;20074;-73
2022/03/15 12:34:51;;;;;;;;;;;;;;;18.85;18.80;101154.47;4416910;32;20045;-74
2022/03/15 12:37:32;;;;;;;;;;;;;;;18.59;18.69;101157.84;4431272;32;20716;-73
2022/03/15 12:40:00;;;;;;;;;;;;;;;18.16;19.90;101150.66;4430374;32;20334;-73
2022/03/15 12:42:27;;;;;;;;;;;;;;;18.37;19.80;101142.88;4429675;32;19997;-75
2022/03/15 12:45:06;;;;;;;;;;;;;;;18.81;18.73;101143.09;4431800;32;21266;-75